sensor_id;sensor_type;location;lat;lon;timestamp;P1;durP1;ratioP1;P2;durP2;ratioP2
36475;SDS011;56615;42.682;23.364;2022-08-19T00:00:12;10.43;;;6.70;;
36475;SDS011;56615;42.682;23.364;2022-08-19T00:02:41;13.57;;;6.43;;
36475;SDS011;56615;42.682;23.364;2022-08-19T00:05:08;11.35;;;5.93;;
36475;SDS011;56615;42.682;23.364;2022-08-19T00:07:34;12.65;;;6.78;;
36475;SDS011;56615;42.682;23.364;2022-08-19T00:10:00;11.43;;;6.45;;
36475;SDS011;56615;42.682;23.364;2022-08-19T00:12:25;13.52;;;6.97;;
36475;SDS011;56615;42.682;23.364;2022-08-19T00:14:51;11.00;;;6.90;;
36475;SDS011;56615;42.682;23.364;2022-08-19T00:17:19;12.82;;;6.88;;
36475;SDS011;56615;42.682;23.364;2022-08-19T00:19:46;13.63;;;7.18;;
36475;SDS011;56615;42.682;23.364;2022-08-19T00:22:12;12.48;;;7.13;;
36475;SDS011;56615;42.682;23.364;2022-08-19T00:24:38;12.38;;;7.15;;
36475;SDS011;56615;42.682;23.364;2022-08-19T00:27:06;12.73;;;7.43;;
36475;SDS011;56615;42.682;23.364;2022-08-19T00:29:31;12.73;;;7.13;;
36475;SDS011;56615;42.682;23.364;2022-08-19T00:31:57;12.63;;;7.15;;
36475;SDS011;56615;42.682;23.364;2022-08-19T00:34:24;13.18;;;7.00;;
36475;SDS011;56615;42.682;23.364;2022-08-19T00:36:52;16.73;;;7.68;;
36475;SDS011;56615;42.682;23.364;2022-08-19T00:39:18;15.13;;;7.45;;
36475;SDS011;56615;42.682;23.364;2022-08-19T00:41:44;13.48;;;7.68;;
36475;SDS011;56615;42.682;23.364;2022-08-19T00:44:18;13.93;;;8.15;;
36475;SDS011;56615;42.682;23.364;2022-08-19T00:46:48;15.85;;;8.18;;
36475;SDS011;56615;42.682;23.364;2022-08-19T00:49:19;13.73;;;7.93;;
36475;SDS011;56615;42.682;23.364;2022-08-19T00:52:03;12.85;;;8.05;;
36475;SDS011;56615;42.682;23.364;2022-08-19T00:54:33;13.40;;;8.77;;
36475;SDS011;56615;42.682;23.364;2022-08-19T00:57:03;14.23;;;8.68;;
36475;SDS011;56615;42.682;23.364;2022-08-19T00:59:31;13.80;;;8.50;;
36475;SDS011;56615;42.682;23.364;2022-08-19T01:01:56;14.15;;;7.50;;
36475;SDS011;56615;42.682;23.364;2022-08-19T01:04:22;14.32;;;7.35;;
36475;SDS011;56615;42.682;23.364;2022-08-19T01:06:47;13.00;;;7.25;;
36475;SDS011;56615;42.682;23.364;2022-08-19T01:09:13;12.10;;;6.70;;
36475;SDS011;56615;42.682;23.364;2022-08-19T01:11:39;12.52;;;7.00;;
36475;SDS011;56615;42.682;23.364;2022-08-19T01:14:06;10.60;;;6.75;;
36475;SDS011;56615;42.682;23.364;2022-08-19T01:16:34;10.77;;;6.13;;
36475;SDS011;56615;42.682;23.364;2022-08-19T01:19:00;11.15;;;6.68;;
36475;SDS011;56615;42.682;23.364;2022-08-19T01:21:43;11.50;;;6.70;;
36475;SDS011;56615;42.682;23.364;2022-08-19T01:24:12;10.10;;;6.07;;
36475;SDS011;56615;42.682;23.364;2022-08-19T01:26:42;11.60;;;6.45;;
36475;SDS011;56615;42.682;23.364;2022-08-19T01:29:11;12.32;;;6.65;;
36475;SDS011;56615;42.682;23.364;2022-08-19T01:31:36;8.50;;;6.18;;
36475;SDS011;56615;42.682;23.364;2022-08-19T01:34:04;8.95;;;6.18;;
36475;SDS011;56615;42.682;23.364;2022-08-19T01:36:39;12.15;;;7.57;;
36475;SDS011;56615;42.682;23.364;2022-08-19T01:39:08;9.30;;;6.20;;
36475;SDS011;56615;42.682;23.364;2022-08-19T01:41:35;11.07;;;6.75;;
36475;SDS011;56615;42.682;23.364;2022-08-19T01:44:01;13.75;;;7.13;;
36475;SDS011;56615;42.682;23.364;2022-08-19T01:46:29;11.55;;;6.70;;
36475;SDS011;56615;42.682;23.364;2022-08-19T01:48:57;10.68;;;6.28;;
36475;SDS011;56615;42.682;23.364;2022-08-19T01:51:25;9.27;;;6.00;;
36475;SDS011;56615;42.682;23.364;2022-08-19T01:53:51;11.63;;;6.50;;
36475;SDS011;56615;42.682;23.364;2022-08-19T01:56:17;10.57;;;6.60;;
36475;SDS011;56615;42.682;23.364;2022-08-19T01:58:49;9.30;;;6.68;;
36475;SDS011;56615;42.682;23.364;2022-08-19T02:01:17;9.50;;;6.05;;
36475;SDS011;56615;42.682;23.364;2022-08-19T02:03:44;10.55;;;6.35;;
36475;SDS011;56615;42.682;23.364;2022-08-19T02:06:10;9.20;;;6.55;;
36475;SDS011;56615;42.682;23.364;2022-08-19T02:08:37;14.50;;;6.13;;
36475;SDS011;56615;42.682;23.364;2022-08-19T02:11:04;11.95;;;6.53;;
36475;SDS011;56615;42.682;23.364;2022-08-19T02:13:30;12.40;;;6.45;;
36475;SDS011;56615;42.682;23.364;2022-08-19T02:15:55;11.05;;;6.38;;
36475;SDS011;56615;42.682;23.364;2022-08-19T02:18:26;10.77;;;6.55;;
36475;SDS011;56615;42.682;23.364;2022-08-19T02:20:55;9.52;;;6.75;;
36475;SDS011;56615;42.682;23.364;2022-08-19T02:23:21;9.98;;;6.07;;
36475;SDS011;56615;42.682;23.364;2022-08-19T02:25:48;10.70;;;6.15;;
36475;SDS011;56615;42.682;23.364;2022-08-19T02:28:13;8.60;;;5.80;;
36475;SDS011;56615;42.682;23.364;2022-08-19T02:30:40;10.80;;;6.00;;
36475;SDS011;56615;42.682;23.364;2022-08-19T02:33:06;11.07;;;6.45;;
36475;SDS011;56615;42.682;23.364;2022-08-19T02:35:31;11.45;;;6.72;;
36475;SDS011;56615;42.682;23.364;2022-08-19T02:37:57;9.35;;;5.95;;
36475;SDS011;56615;42.682;23.364;2022-08-19T02:40:47;11.82;;;6.35;;
36475;SDS011;56615;42.682;23.364;2022-08-19T02:43:16;10.73;;;6.63;;
36475;SDS011;56615;42.682;23.364;2022-08-19T02:45:42;10.27;;;6.85;;
36475;SDS011;56615;42.682;23.364;2022-08-19T02:48:11;13.38;;;6.57;;
36475;SDS011;56615;42.682;23.364;2022-08-19T02:50:40;11.00;;;7.10;;
36475;SDS011;56615;42.682;23.364;2022-08-19T02:53:06;9.85;;;6.82;;
36475;SDS011;56615;42.682;23.364;2022-08-19T02:55:33;11.65;;;6.80;;
36475;SDS011;56615;42.682;23.364;2022-08-19T02:58:00;12.27;;;7.38;;
36475;SDS011;56615;42.682;23.364;2022-08-19T03:00:26;11.65;;;7.13;;
36475;SDS011;56615;42.682;23.364;2022-08-19T03:02:52;11.27;;;7.20;;
36475;SDS011;56615;42.682;23.364;2022-08-19T03:05:18;11.07;;;6.82;;
36475;SDS011;56615;42.682;23.364;2022-08-19T03:07:44;10.68;;;6.78;;
36475;SDS011;56615;42.682;23.364;2022-08-19T03:10:12;14.80;;;7.50;;
36475;SDS011;56615;42.682;23.364;2022-08-19T03:12:40;11.23;;;6.88;;
36475;SDS011;56615;42.682;23.364;2022-08-19T03:15:07;14.50;;;7.13;;
36475;SDS011;56615;42.682;23.364;2022-08-19T03:17:34;10.90;;;7.07;;
36475;SDS011;56615;42.682;23.364;2022-08-19T03:20:00;12.68;;;7.38;;
36475;SDS011;56615;42.682;23.364;2022-08-19T03:22:26;13.18;;;7.50;;
36475;SDS011;56615;42.682;23.364;2022-08-19T03:24:52;14.88;;;7.45;;
36475;SDS011;56615;42.682;23.364;2022-08-19T03:27:18;12.18;;;7.15;;
36475;SDS011;56615;42.682;23.364;2022-08-19T03:29:46;13.63;;;7.45;;
36475;SDS011;56615;42.682;23.364;2022-08-19T03:32:11;12.77;;;6.88;;
36475;SDS011;56615;42.682;23.364;2022-08-19T03:34:37;13.18;;;7.70;;
36475;SDS011;56615;42.682;23.364;2022-08-19T03:37:05;10.90;;;6.88;;
36475;SDS011;56615;42.682;23.364;2022-08-19T03:39:32;9.82;;;6.78;;
36475;SDS011;56615;42.682;23.364;2022-08-19T03:42:01;12.02;;;7.15;;
36475;SDS011;56615;42.682;23.364;2022-08-19T03:44:29;12.52;;;7.35;;
36475;SDS011;56615;42.682;23.364;2022-08-19T03:46:56;12.65;;;7.38;;
36475;SDS011;56615;42.682;23.364;2022-08-19T03:49:27;13.43;;;7.72;;
36475;SDS011;56615;42.682;23.364;2022-08-19T03:51:56;13.18;;;7.68;;
36475;SDS011;56615;42.682;23.364;2022-08-19T03:54:24;15.45;;;7.65;;
36475;SDS011;56615;42.682;23.364;2022-08-19T03:56:54;13.95;;;7.47;;
36475;SDS011;56615;42.682;23.364;2022-08-19T03:59:22;14.43;;;7.50;;
36475;SDS011;56615;42.682;23.364;2022-08-19T04:01:59;11.18;;;7.00;;
36475;SDS011;56615;42.682;23.364;2022-08-19T04:04:26;14.55;;;7.35;;
36475;SDS011;56615;42.682;23.364;2022-08-19T04:06:53;12.57;;;7.40;;
36475;SDS011;56615;42.682;23.364;2022-08-19T04:09:20;11.80;;;6.72;;
36475;SDS011;56615;42.682;23.364;2022-08-19T04:11:48;15.90;;;7.05;;
36475;SDS011;56615;42.682;23.364;2022-08-19T04:14:21;17.63;;;6.95;;
36475;SDS011;56615;42.682;23.364;2022-08-19T04:16:52;13.73;;;7.22;;
36475;SDS011;56615;42.682;23.364;2022-08-19T04:19:22;14.85;;;7.72;;
36475;SDS011;56615;42.682;23.364;2022-08-19T04:21:48;9.93;;;6.85;;
36475;SDS011;56615;42.682;23.364;2022-08-19T04:24:17;14.98;;;7.68;;
36475;SDS011;56615;42.682;23.364;2022-08-19T04:26:44;13.25;;;7.07;;
36475;SDS011;56615;42.682;23.364;2022-08-19T04:29:12;12.82;;;6.95;;
36475;SDS011;56615;42.682;23.364;2022-08-19T04:31:40;13.82;;;7.72;;
36475;SDS011;56615;42.682;23.364;2022-08-19T04:34:11;15.02;;;7.70;;
36475;SDS011;56615;42.682;23.364;2022-08-19T04:36:38;19.67;;;7.40;;
36475;SDS011;56615;42.682;23.364;2022-08-19T04:39:10;14.10;;;7.03;;
36475;SDS011;56615;42.682;23.364;2022-08-19T04:41:38;15.48;;;7.65;;
36475;SDS011;56615;42.682;23.364;2022-08-19T04:44:24;14.27;;;8.55;;
36475;SDS011;56615;42.682;23.364;2022-08-19T04:46:50;13.55;;;7.50;;
36475;SDS011;56615;42.682;23.364;2022-08-19T04:49:20;16.48;;;8.20;;
36475;SDS011;56615;42.682;23.364;2022-08-19T04:51:50;19.52;;;7.80;;
36475;SDS011;56615;42.682;23.364;2022-08-19T04:54:18;16.90;;;7.65;;
36475;SDS011;56615;42.682;23.364;2022-08-19T04:56:49;16.63;;;7.53;;
36475;SDS011;56615;42.682;23.364;2022-08-19T05:01:47;15.38;;;7.85;;
36475;SDS011;56615;42.682;23.364;2022-08-19T05:04:15;15.32;;;7.75;;
36475;SDS011;56615;42.682;23.364;2022-08-19T05:06:44;17.25;;;8.73;;
36475;SDS011;56615;42.682;23.364;2022-08-19T05:09:10;15.27;;;8.05;;
36475;SDS011;56615;42.682;23.364;2022-08-19T05:11:37;17.90;;;8.80;;
36475;SDS011;56615;42.682;23.364;2022-08-19T05:14:08;18.67;;;8.75;;
36475;SDS011;56615;42.682;23.364;2022-08-19T05:16:46;18.73;;;7.97;;
36475;SDS011;56615;42.682;23.364;2022-08-19T05:19:16;17.05;;;7.65;;
36475;SDS011;56615;42.682;23.364;2022-08-19T05:22:03;14.73;;;7.10;;
36475;SDS011;56615;42.682;23.364;2022-08-19T05:24:48;15.95;;;7.53;;
36475;SDS011;56615;42.682;23.364;2022-08-19T05:27:24;17.65;;;7.72;;
36475;SDS011;56615;42.682;23.364;2022-08-19T05:29:50;13.40;;;7.95;;
36475;SDS011;56615;42.682;23.364;2022-08-19T05:32:29;11.90;;;6.85;;
36475;SDS011;56615;42.682;23.364;2022-08-19T05:35:10;18.10;;;7.70;;
36475;SDS011;56615;42.682;23.364;2022-08-19T05:37:40;12.13;;;6.40;;
36475;SDS011;56615;42.682;23.364;2022-08-19T05:40:13;15.90;;;6.85;;
36475;SDS011;56615;42.682;23.364;2022-08-19T05:42:40;14.93;;;6.35;;
36475;SDS011;56615;42.682;23.364;2022-08-19T05:45:55;14.70;;;5.95;;
36475;SDS011;56615;42.682;23.364;2022-08-19T05:48:36;11.77;;;6.22;;
36475;SDS011;56615;42.682;23.364;2022-08-19T05:51:05;12.20;;;5.47;;
36475;SDS011;56615;42.682;23.364;2022-08-19T05:53:34;10.52;;;5.55;;
36475;SDS011;56615;42.682;23.364;2022-08-19T05:56:27;11.35;;;5.80;;
36475;SDS011;56615;42.682;23.364;2022-08-19T05:59:09;11.02;;;5.70;;
36475;SDS011;56615;42.682;23.364;2022-08-19T06:01:39;11.93;;;5.95;;
36475;SDS011;56615;42.682;23.364;2022-08-19T06:04:23;14.05;;;6.18;;
36475;SDS011;56615;42.682;23.364;2022-08-19T06:07:05;11.02;;;5.88;;
36475;SDS011;56615;42.682;23.364;2022-08-19T06:09:42;9.38;;;5.38;;
36475;SDS011;56615;42.682;23.364;2022-08-19T06:12:11;15.15;;;6.20;;
36475;SDS011;56615;42.682;23.364;2022-08-19T06:14:51;16.10;;;5.80;;
36475;SDS011;56615;42.682;23.364;2022-08-19T06:17:22;18.02;;;5.65;;
36475;SDS011;56615;42.682;23.364;2022-08-19T06:20:48;10.82;;;5.47;;
36475;SDS011;56615;42.682;23.364;2022-08-19T06:23:30;17.67;;;6.05;;
36475;SDS011;56615;42.682;23.364;2022-08-19T06:26:00;12.88;;;6.03;;
36475;SDS011;56615;42.682;23.364;2022-08-19T06:28:28;11.02;;;5.82;;
36475;SDS011;56615;42.682;23.364;2022-08-19T06:31:16;16.40;;;6.90;;
36475;SDS011;56615;42.682;23.364;2022-08-19T06:33:52;11.95;;;5.63;;
36475;SDS011;56615;42.682;23.364;2022-08-19T06:36:29;11.15;;;5.80;;
36475;SDS011;56615;42.682;23.364;2022-08-19T06:39:00;11.27;;;5.63;;
36475;SDS011;56615;42.682;23.364;2022-08-19T06:41:43;10.52;;;5.13;;
36475;SDS011;56615;42.682;23.364;2022-08-19T06:44:15;13.07;;;4.90;;
36475;SDS011;56615;42.682;23.364;2022-08-19T06:46:49;13.07;;;5.30;;
36475;SDS011;56615;42.682;23.364;2022-08-19T06:49:23;13.55;;;4.97;;
36475;SDS011;56615;42.682;23.364;2022-08-19T06:52:03;11.07;;;5.03;;
36475;SDS011;56615;42.682;23.364;2022-08-19T06:54:52;11.98;;;5.28;;
36475;SDS011;56615;42.682;23.364;2022-08-19T06:57:33;11.98;;;5.22;;
36475;SDS011;56615;42.682;23.364;2022-08-19T07:00:08;12.00;;;5.05;;
36475;SDS011;56615;42.682;23.364;2022-08-19T07:02:54;10.32;;;4.97;;
36475;SDS011;56615;42.682;23.364;2022-08-19T07:05:39;17.33;;;5.40;;
36475;SDS011;56615;42.682;23.364;2022-08-19T07:08:05;11.02;;;5.65;;
36475;SDS011;56615;42.682;23.364;2022-08-19T07:10:33;9.93;;;4.80;;
36475;SDS011;56615;42.682;23.364;2022-08-19T07:13:00;13.48;;;6.38;;
36475;SDS011;56615;42.682;23.364;2022-08-19T07:15:25;9.57;;;5.40;;
36475;SDS011;56615;42.682;23.364;2022-08-19T07:17:52;9.95;;;4.90;;
36475;SDS011;56615;42.682;23.364;2022-08-19T07:20:17;9.90;;;5.15;;
36475;SDS011;56615;42.682;23.364;2022-08-19T07:22:42;7.20;;;4.40;;
36475;SDS011;56615;42.682;23.364;2022-08-19T07:25:08;10.90;;;4.80;;
36475;SDS011;56615;42.682;23.364;2022-08-19T07:27:34;10.40;;;4.65;;
36475;SDS011;56615;42.682;23.364;2022-08-19T07:30:02;8.95;;;4.07;;
36475;SDS011;56615;42.682;23.364;2022-08-19T07:32:29;8.68;;;4.65;;
36475;SDS011;56615;42.682;23.364;2022-08-19T07:34:56;16.17;;;5.05;;
36475;SDS011;56615;42.682;23.364;2022-08-19T07:37:22;11.13;;;5.13;;
36475;SDS011;56615;42.682;23.364;2022-08-19T07:39:48;10.20;;;4.75;;
36475;SDS011;56615;42.682;23.364;2022-08-19T07:42:14;11.85;;;4.93;;
36475;SDS011;56615;42.682;23.364;2022-08-19T07:44:40;12.35;;;4.88;;
36475;SDS011;56615;42.682;23.364;2022-08-19T07:47:05;15.35;;;5.00;;
36475;SDS011;56615;42.682;23.364;2022-08-19T07:49:32;13.70;;;5.15;;
36475;SDS011;56615;42.682;23.364;2022-08-19T07:52:00;11.70;;;4.95;;
36475;SDS011;56615;42.682;23.364;2022-08-19T07:54:30;8.82;;;4.82;;
36475;SDS011;56615;42.682;23.364;2022-08-19T07:56:59;12.00;;;4.75;;
36475;SDS011;56615;42.682;23.364;2022-08-19T07:59:24;12.43;;;4.53;;
36475;SDS011;56615;42.682;23.364;2022-08-19T08:01:50;10.60;;;4.95;;
36475;SDS011;56615;42.682;23.364;2022-08-19T08:04:16;12.00;;;5.03;;
36475;SDS011;56615;42.682;23.364;2022-08-19T08:07:02;15.60;;;5.15;;
36475;SDS011;56615;42.682;23.364;2022-08-19T08:09:47;9.82;;;5.20;;
36475;SDS011;56615;42.682;23.364;2022-08-19T08:12:20;10.63;;;4.72;;
36475;SDS011;56615;42.682;23.364;2022-08-19T08:14:54;13.20;;;4.55;;
36475;SDS011;56615;42.682;23.364;2022-08-19T08:17:21;8.77;;;4.70;;
36475;SDS011;56615;42.682;23.364;2022-08-19T08:19:50;8.73;;;4.72;;
36475;SDS011;56615;42.682;23.364;2022-08-19T08:22:17;9.02;;;5.15;;
36475;SDS011;56615;42.682;23.364;2022-08-19T08:25:03;14.25;;;4.97;;
36475;SDS011;56615;42.682;23.364;2022-08-19T08:27:30;12.65;;;4.80;;
36475;SDS011;56615;42.682;23.364;2022-08-19T08:29:56;10.65;;;4.70;;
36475;SDS011;56615;42.682;23.364;2022-08-19T08:32:22;9.23;;;4.50;;
36475;SDS011;56615;42.682;23.364;2022-08-19T08:34:48;11.65;;;4.70;;
36475;SDS011;56615;42.682;23.364;2022-08-19T08:37:13;10.18;;;4.63;;
36475;SDS011;56615;42.682;23.364;2022-08-19T08:39:39;12.27;;;5.22;;
36475;SDS011;56615;42.682;23.364;2022-08-19T08:47:04;11.27;;;4.82;;
36475;SDS011;56615;42.682;23.364;2022-08-19T08:49:41;6.47;;;4.00;;
36475;SDS011;56615;42.682;23.364;2022-08-19T08:52:22;9.88;;;4.45;;
36475;SDS011;56615;42.682;23.364;2022-08-19T08:54:48;11.27;;;4.80;;
36475;SDS011;56615;42.682;23.364;2022-08-19T08:57:29;6.90;;;3.90;;
36475;SDS011;56615;42.682;23.364;2022-08-19T09:00:00;8.25;;;3.85;;
36475;SDS011;56615;42.682;23.364;2022-08-19T09:02:30;10.05;;;4.28;;
36475;SDS011;56615;42.682;23.364;2022-08-19T09:04:56;7.63;;;4.00;;
36475;SDS011;56615;42.682;23.364;2022-08-19T09:10:04;16.77;;;4.70;;
36475;SDS011;56615;42.682;23.364;2022-08-19T09:12:39;10.27;;;4.40;;
36475;SDS011;56615;42.682;23.364;2022-08-19T09:15:32;12.43;;;4.80;;
36475;SDS011;56615;42.682;23.364;2022-08-19T09:18:01;11.63;;;4.70;;
36475;SDS011;56615;42.682;23.364;2022-08-19T09:20:27;8.50;;;4.80;;
36475;SDS011;56615;42.682;23.364;2022-08-19T09:22:53;7.40;;;3.92;;
36475;SDS011;56615;42.682;23.364;2022-08-19T09:25:20;7.80;;;3.30;;
36475;SDS011;56615;42.682;23.364;2022-08-19T09:27:47;10.65;;;3.83;;
36475;SDS011;56615;42.682;23.364;2022-08-19T09:30:16;4.50;;;3.30;;
36475;SDS011;56615;42.682;23.364;2022-08-19T09:32:43;7.07;;;3.40;;
36475;SDS011;56615;42.682;23.364;2022-08-19T09:35:09;5.72;;;3.42;;
36475;SDS011;56615;42.682;23.364;2022-08-19T09:37:35;5.32;;;3.20;;
36475;SDS011;56615;42.682;23.364;2022-08-19T09:40:01;7.78;;;3.10;;
36475;SDS011;56615;42.682;23.364;2022-08-19T09:42:26;5.53;;;3.50;;
36475;SDS011;56615;42.682;23.364;2022-08-19T09:44:52;9.10;;;3.30;;
36475;SDS011;56615;42.682;23.364;2022-08-19T09:47:17;5.97;;;3.10;;
36475;SDS011;56615;42.682;23.364;2022-08-19T09:49:43;5.97;;;3.28;;
36475;SDS011;56615;42.682;23.364;2022-08-19T09:52:09;4.82;;;2.92;;
36475;SDS011;56615;42.682;23.364;2022-08-19T09:57:18;10.57;;;3.50;;
36475;SDS011;56615;42.682;23.364;2022-08-19T09:59:49;6.68;;;3.40;;
36475;SDS011;56615;42.682;23.364;2022-08-19T10:02:14;5.88;;;3.40;;
36475;SDS011;56615;42.682;23.364;2022-08-19T10:04:41;5.50;;;2.97;;
36475;SDS011;56615;42.682;23.364;2022-08-19T10:07:25;8.90;;;3.50;;
36475;SDS011;56615;42.682;23.364;2022-08-19T10:12:24;5.78;;;3.58;;
36475;SDS011;56615;42.682;23.364;2022-08-19T10:15:01;7.00;;;3.20;;
36475;SDS011;56615;42.682;23.364;2022-08-19T10:17:27;9.10;;;3.80;;
36475;SDS011;56615;42.682;23.364;2022-08-19T10:20:01;8.07;;;3.60;;
36475;SDS011;56615;42.682;23.364;2022-08-19T10:22:34;8.48;;;3.30;;
36475;SDS011;56615;42.682;23.364;2022-08-19T10:31:16;6.78;;;3.38;;
36475;SDS011;56615;42.682;23.364;2022-08-19T10:34:13;6.90;;;3.42;;
36475;SDS011;56615;42.682;23.364;2022-08-19T10:36:44;5.55;;;3.25;;
36475;SDS011;56615;42.682;23.364;2022-08-19T10:39:34;6.82;;;3.85;;
36475;SDS011;56615;42.682;23.364;2022-08-19T10:42:06;6.25;;;3.60;;
36475;SDS011;56615;42.682;23.364;2022-08-19T10:44:33;5.82;;;3.30;;
36475;SDS011;56615;42.682;23.364;2022-08-19T10:47:03;9.43;;;3.70;;
36475;SDS011;56615;42.682;23.364;2022-08-19T10:49:37;5.25;;;3.90;;
36475;SDS011;56615;42.682;23.364;2022-08-19T10:52:46;7.97;;;3.70;;
36475;SDS011;56615;42.682;23.364;2022-08-19T10:55:17;7.30;;;3.80;;
36475;SDS011;56615;42.682;23.364;2022-08-19T11:04:40;7.68;;;3.60;;
36475;SDS011;56615;42.682;23.364;2022-08-19T11:22:28;5.93;;;3.67;;
36475;SDS011;56615;42.682;23.364;2022-08-19T11:24:53;6.05;;;3.67;;
36475;SDS011;56615;42.682;23.364;2022-08-19T11:27:20;6.93;;;3.85;;
36475;SDS011;56615;42.682;23.364;2022-08-19T11:29:45;6.97;;;4.53;;
36475;SDS011;56615;42.682;23.364;2022-08-19T12:09:15;9.68;;;4.20;;
36475;SDS011;56615;42.682;23.364;2022-08-19T12:11:41;9.07;;;4.13;;
36475;SDS011;56615;42.682;23.364;2022-08-19T12:14:08;7.25;;;3.95;;
36475;SDS011;56615;42.682;23.364;2022-08-19T12:16:35;8.20;;;4.20;;
36475;SDS011;56615;42.682;23.364;2022-08-19T12:19:01;6.82;;;4.15;;
36475;SDS011;56615;42.682;23.364;2022-08-19T12:24:48;9.35;;;3.95;;
36475;SDS011;56615;42.682;23.364;2022-08-19T12:27:15;8.63;;;4.47;;
36475;SDS011;56615;42.682;23.364;2022-08-19T12:29:41;9.10;;;4.40;;
36475;SDS011;56615;42.682;23.364;2022-08-19T12:32:06;6.40;;;3.70;;
36475;SDS011;56615;42.682;23.364;2022-08-19T12:34:35;7.90;;;4.30;;
36475;SDS011;56615;42.682;23.364;2022-08-19T12:37:03;8.13;;;4.43;;
36475;SDS011;56615;42.682;23.364;2022-08-19T12:39:33;7.03;;;4.15;;
36475;SDS011;56615;42.682;23.364;2022-08-19T12:41:59;10.82;;;4.20;;
36475;SDS011;56615;42.682;23.364;2022-08-19T12:44:25;7.20;;;3.90;;
36475;SDS011;56615;42.682;23.364;2022-08-19T12:46:50;9.23;;;4.32;;
36475;SDS011;56615;42.682;23.364;2022-08-19T12:49:16;9.75;;;4.20;;
36475;SDS011;56615;42.682;23.364;2022-08-19T12:51:41;11.63;;;5.75;;
36475;SDS011;56615;42.682;23.364;2022-08-19T12:54:07;9.60;;;4.40;;
36475;SDS011;56615;42.682;23.364;2022-08-19T12:56:33;8.00;;;4.53;;
36475;SDS011;56615;42.682;23.364;2022-08-19T12:59:00;11.48;;;4.68;;
36475;SDS011;56615;42.682;23.364;2022-08-19T13:01:27;7.40;;;4.25;;
36475;SDS011;56615;42.682;23.364;2022-08-19T13:03:57;6.97;;;4.28;;
36475;SDS011;56615;42.682;23.364;2022-08-19T13:06:23;7.15;;;4.10;;
36475;SDS011;56615;42.682;23.364;2022-08-19T13:08:49;7.10;;;4.25;;
36475;SDS011;56615;42.682;23.364;2022-08-19T13:11:15;11.18;;;4.28;;
36475;SDS011;56615;42.682;23.364;2022-08-19T13:13:43;8.57;;;4.45;;
36475;SDS011;56615;42.682;23.364;2022-08-19T13:16:10;6.75;;;3.95;;
36475;SDS011;56615;42.682;23.364;2022-08-19T13:18:37;8.48;;;4.22;;
36475;SDS011;56615;42.682;23.364;2022-08-19T13:21:05;11.80;;;4.10;;
36475;SDS011;56615;42.682;23.364;2022-08-19T13:23:33;13.45;;;5.00;;
36475;SDS011;56615;42.682;23.364;2022-08-19T13:26:00;13.38;;;5.20;;
36475;SDS011;56615;42.682;23.364;2022-08-19T13:28:27;6.78;;;4.30;;
36475;SDS011;56615;42.682;23.364;2022-08-19T13:31:14;7.35;;;4.25;;
36475;SDS011;56615;42.682;23.364;2022-08-19T13:34:01;6.85;;;4.15;;
36475;SDS011;56615;42.682;23.364;2022-08-19T13:36:27;11.80;;;4.70;;
36475;SDS011;56615;42.682;23.364;2022-08-19T13:38:52;6.78;;;4.20;;
36475;SDS011;56615;42.682;23.364;2022-08-19T13:41:19;8.68;;;4.30;;
36475;SDS011;56615;42.682;23.364;2022-08-19T13:43:44;7.68;;;3.95;;
36475;SDS011;56615;42.682;23.364;2022-08-19T13:46:11;10.52;;;4.60;;
36475;SDS011;56615;42.682;23.364;2022-08-19T13:52:02;8.88;;;4.38;;
36475;SDS011;56615;42.682;23.364;2022-08-19T13:54:29;8.05;;;4.35;;
36475;SDS011;56615;42.682;23.364;2022-08-19T13:56:54;8.15;;;4.10;;
36475;SDS011;56615;42.682;23.364;2022-08-19T13:59:20;6.55;;;3.85;;
36475;SDS011;56615;42.682;23.364;2022-08-19T14:01:45;8.80;;;4.07;;
36475;SDS011;56615;42.682;23.364;2022-08-19T14:04:11;7.45;;;4.90;;
36475;SDS011;56615;42.682;23.364;2022-08-19T14:06:36;9.65;;;5.05;;
36475;SDS011;56615;42.682;23.364;2022-08-19T14:09:01;10.68;;;4.55;;
36475;SDS011;56615;42.682;23.364;2022-08-19T14:11:27;8.25;;;4.45;;
36475;SDS011;56615;42.682;23.364;2022-08-19T14:13:54;8.55;;;4.63;;
36475;SDS011;56615;42.682;23.364;2022-08-19T14:16:22;6.88;;;4.03;;
36475;SDS011;56615;42.682;23.364;2022-08-19T14:18:47;10.45;;;4.70;;
36475;SDS011;56615;42.682;23.364;2022-08-19T14:21:17;8.10;;;4.25;;
36475;SDS011;56615;42.682;23.364;2022-08-19T14:24:06;8.60;;;4.70;;
36475;SDS011;56615;42.682;23.364;2022-08-19T14:26:34;10.02;;;4.20;;
36475;SDS011;56615;42.682;23.364;2022-08-19T14:29:00;9.50;;;4.47;;
36475;SDS011;56615;42.682;23.364;2022-08-19T14:31:26;7.13;;;4.40;;
36475;SDS011;56615;42.682;23.364;2022-08-19T14:33:53;7.30;;;5.38;;
36475;SDS011;56615;42.682;23.364;2022-08-19T14:36:20;9.80;;;4.40;;
36475;SDS011;56615;42.682;23.364;2022-08-19T14:38:46;8.07;;;4.57;;
36475;SDS011;56615;42.682;23.364;2022-08-19T14:41:17;9.65;;;4.50;;
36475;SDS011;56615;42.682;23.364;2022-08-19T14:43:47;8.68;;;4.30;;
36475;SDS011;56615;42.682;23.364;2022-08-19T14:46:15;7.95;;;4.85;;
36475;SDS011;56615;42.682;23.364;2022-08-19T14:48:42;10.68;;;4.90;;
36475;SDS011;56615;42.682;23.364;2022-08-19T14:51:09;6.93;;;4.28;;
36475;SDS011;56615;42.682;23.364;2022-08-19T14:53:34;12.90;;;6.25;;
36475;SDS011;56615;42.682;23.364;2022-08-19T14:56:00;11.50;;;4.30;;
36475;SDS011;56615;42.682;23.364;2022-08-19T14:58:26;9.57;;;4.35;;
36475;SDS011;56615;42.682;23.364;2022-08-19T15:00:52;6.15;;;4.22;;
36475;SDS011;56615;42.682;23.364;2022-08-19T15:03:17;7.90;;;4.45;;
36475;SDS011;56615;42.682;23.364;2022-08-19T15:05:43;7.85;;;4.47;;
36475;SDS011;56615;42.682;23.364;2022-08-19T15:08:09;10.00;;;4.30;;
36475;SDS011;56615;42.682;23.364;2022-08-19T15:10:35;7.35;;;4.47;;
36475;SDS011;56615;42.682;23.364;2022-08-19T15:13:01;7.63;;;4.18;;
36475;SDS011;56615;42.682;23.364;2022-08-19T15:15:26;7.82;;;4.32;;
36475;SDS011;56615;42.682;23.364;2022-08-19T15:17:52;8.05;;;4.30;;
36475;SDS011;56615;42.682;23.364;2022-08-19T15:20:19;10.68;;;4.65;;
36475;SDS011;56615;42.682;23.364;2022-08-19T15:22:46;8.75;;;4.32;;
36475;SDS011;56615;42.682;23.364;2022-08-19T15:25:12;9.43;;;4.40;;
36475;SDS011;56615;42.682;23.364;2022-08-19T15:27:39;7.88;;;4.30;;
36475;SDS011;56615;42.682;23.364;2022-08-19T15:30:08;8.40;;;4.25;;
36475;SDS011;56615;42.682;23.364;2022-08-19T15:32:35;8.75;;;4.53;;
36475;SDS011;56615;42.682;23.364;2022-08-19T15:35:01;9.85;;;4.30;;
36475;SDS011;56615;42.682;23.364;2022-08-19T15:37:28;8.02;;;4.18;;
36475;SDS011;56615;42.682;23.364;2022-08-19T15:39:53;11.18;;;4.30;;
36475;SDS011;56615;42.682;23.364;2022-08-19T15:42:20;10.32;;;4.28;;
36475;SDS011;56615;42.682;23.364;2022-08-19T15:44:46;8.57;;;4.30;;
36475;SDS011;56615;42.682;23.364;2022-08-19T15:47:12;7.53;;;4.13;;
36475;SDS011;56615;42.682;23.364;2022-08-19T15:49:38;7.78;;;4.03;;
36475;SDS011;56615;42.682;23.364;2022-08-19T15:52:03;10.30;;;4.03;;
36475;SDS011;56615;42.682;23.364;2022-08-19T15:54:30;9.77;;;4.40;;
36475;SDS011;56615;42.682;23.364;2022-08-19T15:56:56;9.88;;;4.22;;
36475;SDS011;56615;42.682;23.364;2022-08-19T15:59:39;8.40;;;4.30;;
36475;SDS011;56615;42.682;23.364;2022-08-19T16:02:24;9.38;;;4.35;;
36475;SDS011;56615;42.682;23.364;2022-08-19T16:05:10;8.70;;;4.47;;
36475;SDS011;56615;42.682;23.364;2022-08-19T16:07:56;8.45;;;4.50;;